Time;durP1;ratioP1;P1;durP2;ratioP2;P2;SDS_P1;SDS_P2;PMS_P1;PMS_P2;Temp;Humidity;BMP_temperature;BMP_pressure;BME280_temperature;BME280_humidity;BME280_pressure;Samples;Min_cycle;Max_cycle;Signal;HPM_P1;HPM_P2
2023/12/07 00:00:42;;;;;;;24.53;17.93;;;4.70;96.30;;;6.50;70.22;101697.72;3082785;46;21021;-67
2023/12/07 00:03:10;;;;;;;24.27;17.60;;;4.70;96.60;;;6.49;70.41;101688.19;3082343;46;20506;-69
2023/12/07 00:05:38;;;;;;;22.43;17.13;;;4.70;96.30;;;6.50;70.21;101689.03;3082701;43;20446;-66
2023/12/07 00:08:10;;;;;;;21.47;17.23;;;4.70;96.30;;;6.49;70.28;101692.63;3082824;46;20441;-66
2023/12/07 00:10:39;;;;;;;24.60;18.07;;;4.70;96.30;;;6.49;70.36;101690.81;3082724;46;20434;-67
2023/12/07 00:13:07;;;;;;;24.97;19.27;;;4.70;96.40;;;6.50;70.41;101684.66;3082479;46;21150;-67
2023/12/07 00:15:36;;;;;;;20.50;16.33;;;4.70;96.40;;;6.50;70.38;101694.28;3082988;46;21000;-64
2023/12/07 00:18:04;;;;;;;20.27;16.40;;;4.70;96.40;;;6.48;70.37;101697.03;3082431;46;20466;-66
2023/12/07 00:20:32;;;;;;;23.43;18.03;;;4.70;96.30;;;6.48;70.41;101699.63;3083198;46;21034;-66
2023/12/07 00:23:01;;;;;;;21.90;16.43;;;4.70;96.40;;;6.47;70.47;101700.56;3082130;46;20587;-67
2023/12/07 00:25:29;;;;;;;24.87;18.70;;;4.70;96.40;;;6.47;70.31;101694.50;3082812;46;20987;-67
2023/12/07 00:27:57;;;;;;;23.57;18.20;;;4.70;96.40;;;6.45;70.45;101696.41;3082402;46;20487;-66
2023/12/07 00:30:26;;;;;;;22.47;17.27;;;4.70;96.30;;;6.45;70.28;101691.19;3082519;46;20435;-65
2023/12/07 00:32:55;;;;;;;23.07;17.53;;;4.70;96.30;;;6.45;70.42;101697.25;3081932;46;20442;-65
2023/12/07 00:35:23;;;;;;;23.53;18.13;;;4.70;96.40;;;6.45;70.50;101693.81;3082459;46;20563;-66
2023/12/07 00:37:52;;;;;;;21.30;17.40;;;4.70;96.40;;;6.45;70.44;101699.88;3082608;46;21403;-64
2023/12/07 00:40:20;;;;;;;24.63;18.30;;;4.70;96.40;;;6.46;70.36;101700.72;3082845;46;20501;-66
2023/12/07 00:42:49;;;;;;;21.17;17.63;;;4.70;96.40;;;6.46;70.51;101698.94;3081622;46;20435;-66
2023/12/07 00:45:17;;;;;;;24.53;18.33;;;4.70;96.40;;;6.48;70.54;101704.88;3082356;46;21000;-68
2023/12/07 00:47:45;;;;;;;24.27;17.27;;;4.70;96.40;;;6.48;70.36;101707.47;3082376;46;20457;-67
2023/12/07 00:50:14;;;;;;;21.53;17.37;;;4.70;96.40;;;6.50;70.47;101709.97;3082454;46;20439;-66
2023/12/07 00:52:43;;;;;;;22.27;18.07;;;4.70;96.40;;;6.50;70.20;101710.78;3081844;46;20431;-68
2023/12/07 00:55:11;;;;;;;25.20;18.63;;;4.70;96.40;;;6.48;70.15;101712.72;3082346;46;20514;-66
2023/12/07 00:57:40;;;;;;;25.47;19.17;;;4.70;96.30;;;6.47;70.18;101715.44;3081959;46;20454;-68
2023/12/07 01:00:10;;;;;;;23.10;18.77;;;4.70;96.30;;;6.44;70.02;101721.72;3082273;46;20584;-67
2023/12/07 01:02:38;;;;;;;21.00;17.60;;;4.70;96.30;;;6.43;70.19;101724.47;3082299;46;20460;-68
2023/12/07 01:05:08;;;;;;;23.47;16.70;;;4.70;96.30;;;6.42;70.46;101728.06;3082034;46;20427;-66
2023/12/07 01:07:37;;;;;;;21.73;17.60;;;4.70;96.30;;;6.41;70.55;101727.22;3082066;46;20458;-66
2023/12/07 01:10:06;;;;;;;21.27;16.60;;;4.70;96.30;;;6.43;70.49;101730.53;3082001;46;20563;-66
2023/12/07 01:12:35;;;;;;;25.80;18.50;;;4.70;96.40;;;6.44;70.65;101732.19;3081861;46;20427;-66
2023/12/07 01:15:05;;;;;;;24.70;18.77;;;4.70;96.40;;;6.46;70.41;101735.53;3082322;46;20434;-67
2023/12/07 01:17:33;;;;;;;20.87;16.47;;;4.70;96.40;;;6.47;70.46;101742.41;3082225;46;20488;-68
2023/12/07 01:20:03;;;;;;;22.00;18.70;;;4.70;96.40;;;6.48;70.43;101754.53;3082026;46;21027;-67
2023/12/07 01:22:32;;;;;;;25.80;17.67;;;4.70;96.40;;;6.50;70.20;101752.63;3081962;46;20626;-66
2023/12/07 01:25:00;;;;;;;21.33;16.33;;;4.70;96.30;;;6.50;70.39;101749.19;3081703;46;20449;-66
2023/12/07 01:27:29;;;;;;;23.70;17.70;;;4.70;96.40;;;6.52;70.34;101752.50;3081833;46;20438;-67
2023/12/07 01:29:57;;;;;;;20.90;17.37;;;4.70;96.40;;;6.52;70.46;101761.19;3081770;46;20489;-70
2023/12/07 01:32:26;;;;;;;21.80;18.70;;;4.70;96.40;;;6.51;70.10;101758.69;3081609;46;20542;-67
2023/12/07 01:34:54;;;;;;;22.77;17.67;;;4.70;96.20;;;6.50;70.23;101757.84;3081425;46;20446;-66
2023/12/07 01:37:23;;;;;;;21.93;17.67;;;4.70;96.30;;;6.51;70.40;101759.50;3081440;46;21006;-66
2023/12/07 01:39:52;;;;;;;24.17;18.23;;;4.70;96.40;;;6.51;70.20;101762.13;3081647;46;20550;-66
2023/12/07 01:42:20;;;;;;;23.50;18.07;;;4.70;96.20;;;6.51;70.19;101759.50;3081789;46;20466;-65
2023/12/07 01:44:49;;;;;;;21.97;17.73;;;4.70;96.20;;;6.54;70.14;101763.66;3081217;46;20435;-66
2023/12/07 01:47:18;;;;;;;20.73;17.23;;;4.70;96.30;;;6.54;70.21;101759.28;3082040;46;21437;-66
2023/12/07 01:49:46;;;;;;;20.50;16.93;;;4.80;96.40;;;6.53;70.20;101757.63;3081737;46;20438;-69
2023/12/07 01:52:15;;;;;;;19.80;16.87;;;4.70;96.20;;;6.52;70.21;101761.19;3081053;46;20434;-64
2023/12/07 01:54:44;;;;;;;24.87;18.00;;;4.70;96.10;;;6.51;70.10;101759.50;3080845;46;20487;-66
2023/12/07 01:57:12;;;;;;;22.80;17.43;;;4.70;96.10;;;6.51;70.04;101762.13;3081995;46;20462;-66
2023/12/07 01:59:40;;;;;;;22.77;17.40;;;4.70;96.10;;;6.54;70.15;101761.03;3081100;46;20497;-67
2023/12/07 02:02:09;;;;;;;21.33;16.77;;;4.70;96.20;;;6.54;70.33;101759.28;3081746;46;20509;-66
2023/12/07 02:04:38;;;;;;;22.33;17.87;;;4.70;96.20;;;6.56;70.33;101757.34;3080976;46;20585;-66
2023/12/07 02:07:07;;;;;;;24.53;17.67;;;4.70;96.20;;;6.57;69.78;101756.41;3081666;46;20492;-66
2023/12/07 02:09:37;;;;;;;24.50;18.67;;;4.80;96.20;;;6.56;69.94;101752.13;3080976;46;20552;-65
2023/12/07 02:12:06;;;;;;;23.07;17.07;;;4.70;96.10;;;6.55;70.09;101755.72;3081638;46;20466;-66
2023/12/07 02:14:34;;;;;;;23.93;17.07;;;4.80;96.20;;;6.57;70.21;101763.41;3081201;46;20500;-66
2023/12/07 02:17:47;;;;;;;24.03;18.10;;;4.80;96.20;;;6.55;70.25;101767.94;3082161;46;20438;-66
2023/12/07 02:20:29;;;;;;;20.17;16.33;;;4.80;96.20;;;6.57;69.91;101773.88;3080958;46;20575;-64
2023/12/07 02:23:04;;;;;;;22.63;17.83;;;4.80;96.10;;;6.58;70.01;101770.31;3080263;46;20540;-67
2023/12/07 02:25:51;;;;;;;20.43;16.77;;;4.80;96.10;;;6.58;69.96;101770.31;3081469;46;21062;-63
2023/12/07 02:28:19;;;;;;;20.70;16.17;;;4.80;96.20;;;6.61;70.09;101765.66;3081317;46;20996;-66
2023/12/07 02:30:48;;;;;;;26.73;16.50;;;4.80;96.20;;;6.63;70.03;101771.59;3081141;46;20480;-67
2023/12/07 02:33:16;;;;;;;20.73;15.63;;;4.80;96.20;;;6.66;70.12;101771.34;3081028;46;20580;-68
2023/12/07 02:35:45;;;;;;;20.77;16.10;;;4.80;96.10;;;6.68;69.97;101769.44;3081136;46;20542;-67
2023/12/07 02:38:16;;;;;;;20.93;16.30;;;4.90;96.20;;;6.70;69.96;101764.09;3080872;46;21003;-67
2023/12/07 02:40:47;;;;;;;21.57;17.90;;;4.90;96.20;;;6.71;70.15;101763.97;3081331;46;20631;-67
2023/12/07 02:43:15;;;;;;;21.93;16.77;;;4.90;96.20;;;6.74;69.94;101761.13;3079761;46;20461;-67
2023/12/07 02:45:44;;;;;;;19.87;16.07;;;4.90;96.20;;;6.76;69.97;101769.66;3081132;46;21168;-66
2023/12/07 02:48:13;;;;;;;23.50;17.90;;;4.90;96.10;;;6.77;69.95;101771.31;3081247;46;20478;-65
2023/12/07 02:50:41;;;;;;;23.30;17.73;;;5.00;96.10;;;6.77;69.85;101771.31;3081267;46;20491;-66
2023/12/07 02:53:09;;;;;;;22.87;17.83;;;5.00;96.10;;;6.77;69.73;101770.50;3080544;46;20471;-67
2023/12/07 02:55:38;;;;;;;22.47;17.03;;;5.00;96.00;;;6.76;69.48;101772.28;3081121;46;20527;-64
2023/12/07 02:58:06;;;;;;;21.13;16.57;;;5.00;96.00;;;6.76;69.69;101774.91;3081083;46;20432;-67
2023/12/07 03:00:35;;;;;;;20.60;16.57;;;5.00;95.90;;;6.77;69.61;101775.75;3081056;46;20462;-66
2023/12/07 03:03:03;;;;;;;21.17;17.37;;;5.00;95.90;;;6.76;69.50;101780.13;3080955;46;20515;-67
2023/12/07 03:05:31;;;;;;;18.87;15.93;;;5.00;95.90;;;6.74;69.82;101776.81;3080717;46;20587;-66
2023/12/07 03:08:00;;;;;;;22.70;16.93;;;5.00;95.90;;;6.72;69.35;101770.88;3081457;46;20980;-68
2023/12/07 03:10:28;;;;;;;19.43;15.80;;;5.00;96.00;;;6.74;69.65;101770.75;3080628;46;20442;-68
2023/12/07 03:12:57;;;;;;;21.27;16.47;;;5.00;95.90;;;6.72;69.81;101770.88;3080948;46;20434;-66
2023/12/07 03:15:26;;;;;;;21.03;15.67;;;5.00;95.90;;;6.71;69.73;101771.81;3080801;46;20487;-66
2023/12/07 03:17:54;;;;;;;18.90;15.57;;;5.00;95.80;;;6.71;69.63;101769.22;3081230;46;20550;-66
2023/12/07 03:20:23;;;;;;;19.50;16.47;;;5.00;95.80;;;6.71;69.51;101771.81;3081083;46;20587;-66
2023/12/07 03:22:51;;;;;;;18.20;15.50;;;5.00;95.80;;;6.73;69.65;101775.13;3080503;46;20474;-66
2023/12/07 03:25:20;;;;;;;20.17;16.47;;;5.00;96.00;;;6.75;69.66;101788.13;3080361;46;21008;-66
2023/12/07 03:27:48;;;;;;;18.77;15.90;;;5.00;95.90;;;6.75;69.36;101786.31;3080807;46;20434;-67
2023/12/07 03:30:17;;;;;;;24.30;16.13;;;5.00;95.80;;;6.76;69.68;101790.59;3081058;46;20552;-67
2023/12/07 03:32:45;;;;;;;19.53;15.47;;;5.00;95.90;;;6.77;69.42;101780.97;3080532;46;20507;-67
2023/12/07 03:35:14;;;;;;;21.27;16.30;;;5.00;95.80;;;6.76;69.34;101785.38;3079972;46;20451;-66
2023/12/07 03:37:42;;;;;;;17.67;15.10;;;5.00;95.80;;;6.78;69.38;101793.91;3080830;46;20556;-66
2023/12/07 03:40:11;;;;;;;20.13;15.97;;;5.00;95.70;;;6.77;69.26;101792.25;3080772;46;21012;-67
2023/12/07 03:42:39;;;;;;;21.03;15.33;;;5.00;95.70;;;6.76;69.37;101790.59;3080371;46;21033;-67
2023/12/07 03:45:22;;;;;;;18.47;15.67;;;5.00;95.70;;;6.74;69.19;101784.66;3080440;46;20431;-66
2023/12/07 03:47:51;;;;;;;19.37;16.47;;;5.00;95.70;;;6.74;69.53;101792.50;3080750;46;20436;-67
2023/12/07 03:50:19;;;;;;;21.73;16.50;;;5.00;95.80;;;6.75;69.50;101793.34;3080905;46;20493;-66
2023/12/07 03:52:48;;;;;;;18.53;15.70;;;5.00;95.80;;;6.75;69.29;101804.63;3080399;46;21090;-67
2023/12/07 03:55:16;;;;;;;22.13;16.30;;;5.00;95.70;;;6.75;69.39;101803.81;3080538;46;20462;-68
2023/12/07 03:57:45;;;;;;;18.57;15.80;;;5.00;95.70;;;6.76;69.37;101803.69;3080555;46;20433;-67
2023/12/07 04:00:14;;;;;;;23.23;16.03;;;5.00;95.70;;;6.76;69.50;101811.53;3080973;46;20454;-67
2023/12/07 04:02:43;;;;;;;17.77;14.77;;;5.00;95.60;;;6.75;69.41;101804.63;3082748;46;20544;-67
2023/12/07 04:05:12;;;;;;;18.47;15.43;;;5.00;95.50;;;6.75;69.17;101804.63;3082233;43;20433;-66
2023/12/07 04:07:41;;;;;;;20.63;14.77;;;5.00;95.50;;;6.75;69.20;101807.22;3082945;46;20526;-65
2023/12/07 04:10:10;;;;;;;18.10;14.77;;;5.00;95.60;;;6.75;69.16;101815.09;3082824;46;20444;-66
2023/12/07 04:12:39;;;;;;;19.30;14.90;;;5.00;95.50;;;6.75;69.08;101803.81;3082563;46;21114;-67
2023/12/07 04:15:08;;;;;;;20.80;16.33;;;5.00;95.60;;;6.75;69.44;101807.22;3082323;46;20433;-67
2023/12/07 04:17:36;;;;;;;19.20;15.23;;;5.00;95.70;;;6.74;69.02;101808.19;3081316;46;21108;-66
2023/12/07 04:20:05;;;;;;;17.77;14.90;;;5.00;95.60;;;6.73;69.20;101806.53;3082682;46;20595;-65
2023/12/07 04:22:34;;;;;;;20.57;16.30;;;5.00;95.60;;;6.75;69.00;101809.84;3081945;46;20473;-69
2023/12/07 04:25:03;;;;;;;18.80;15.13;;;5.00;95.60;;;6.75;69.17;101807.22;3082149;46;20537;-67
2023/12/07 04:27:33;;;;;;;19.77;15.37;;;5.00;95.50;;;6.77;69.32;101815.78;3082324;46;20533;-67
2023/12/07 04:30:01;;;;;;;20.33;14.77;;;5.00;95.60;;;6.80;69.15;101812.94;3082890;46;20431;-66
2023/12/07 04:32:30;;;;;;;19.70;15.13;;;5.00;95.70;;;6.81;69.22;101808.53;3082217;46;20462;-66
2023/12/07 04:34:58;;;;;;;18.37;16.17;;;5.00;95.70;;;6.78;68.73;101804.38;3081778;46;21044;-67
2023/12/07 04:37:27;;;;;;;18.77;15.03;;;5.00;95.60;;;6.78;68.70;101814.84;3082504;46;20424;-66
2023/12/07 04:39:55;;;;;;;18.27;14.60;;;5.10;95.60;;;6.77;68.91;101807.94;3082823;46;20450;-68
2023/12/07 04:42:23;;;;;;;19.17;14.57;;;5.00;95.50;;;6.75;68.97;101794.16;3082211;46;20500;-66
2023/12/07 04:44:52;;;;;;;17.97;15.23;;;5.00;95.50;;;6.77;69.21;101797.47;3082089;46;20445;-67
2023/12/07 04:47:21;;;;;;;19.77;15.63;;;5.00;95.50;;;6.76;68.37;101801.06;3082546;46;21014;-66
2023/12/07 04:49:49;;;;;;;20.03;15.23;;;5.00;95.50;;;6.73;68.57;101796.06;3082443;46;20473;-67
2023/12/07 04:52:19;;;;;;;18.83;14.37;;;5.00;95.50;;;6.71;68.65;101808.44;3082203;46;20452;-65
2023/12/07 04:54:48;;;;;;;18.43;15.00;;;5.00;95.50;;;6.70;69.01;101803.34;3081832;46;21031;-66
2023/12/07 04:57:16;;;;;;;17.30;14.00;;;5.00;95.60;;;6.72;69.19;101809.28;3082350;46;20466;-65
2023/12/07 04:59:46;;;;;;;18.93;15.00;;;5.00;95.70;;;6.77;69.13;101812.34;3081623;46;20462;-62
2023/12/07 05:02:16;;;;;;;19.33;14.67;;;5.10;95.70;;;6.81;69.00;101809.38;3082899;46;20468;-66
2023/12/07 05:04:45;;;;;;;17.37;15.10;;;5.10;95.70;;;6.82;69.09;101813.63;3082284;46;20948;-65
2023/12/07 05:07:14;;;;;;;19.20;15.63;;;5.10;95.70;;;6.83;68.97;101815.31;3081993;46;20438;-66
2023/12/07 05:09:42;;;;;;;16.83;13.97;;;5.10;95.60;;;6.85;68.97;101814.38;3082076;46;21060;-66
2023/12/07 05:12:11;;;;;;;20.10;15.80;;;5.00;95.60;;;6.86;69.09;101809.00;3081416;46;21012;-66
2023/12/07 05:14:39;;;;;;;17.57;14.87;;;5.10;95.60;;;6.90;68.90;101814.78;3081873;46;21035;-68
2023/12/07 05:17:08;;;;;;;20.10;15.10;;;5.10;95.60;;;6.91;68.85;101813.84;3082261;46;20463;-68
2023/12/07 05:19:36;;;;;;;16.97;13.83;;;5.10;95.60;;;6.91;68.91;101816.47;3082058;46;20712;-67
2023/12/07 05:22:05;;;;;;;17.70;15.20;;;5.10;95.40;;;6.91;68.76;101819.94;3082307;46;20520;-65
2023/12/07 05:24:35;;;;;;;21.23;15.07;;;5.10;95.50;;;6.91;68.83;101819.94;3080791;46;20473;-66
2023/12/07 05:27:04;;;;;;;19.13;14.83;;;5.20;95.50;;;6.90;68.58;101817.41;3081682;46;20432;-67
2023/12/07 05:29:32;;;;;;;19.60;14.60;;;5.20;95.60;;;6.89;68.82;101816.59;3082075;46;20427;-66
2023/12/07 05:32:00;;;;;;;18.70;14.67;;;5.20;95.40;;;6.90;68.84;101823.47;3081646;46;20438;-66
2023/12/07 05:34:29;;;;;;;17.70;14.60;;;5.10;95.50;;;6.93;68.97;101825.03;3081184;46;20469;-66
2023/12/07 05:36:57;;;;;;;18.03;14.60;;;5.20;95.50;;;6.94;68.75;101824.09;3081830;46;21024;-67
2023/12/07 05:39:26;;;;;;;16.83;13.83;;;5.20;95.50;;;6.94;68.55;101819.66;3081770;46;20458;-66
2023/12/07 05:41:54;;;;;;;18.13;14.93;;;5.20;95.50;;;6.95;68.80;101825.72;3081133;46;20483;-67
2023/12/07 05:44:22;;;;;;;17.03;14.17;;;5.20;95.50;;;6.93;68.33;101817.16;3081232;46;20458;-67
2023/12/07 05:46:51;;;;;;;19.53;14.83;;;5.20;95.40;;;6.89;68.16;101815.78;3081644;46;20427;-67
2023/12/07 05:49:22;;;;;;;19.50;15.13;;;5.20;95.30;;;6.85;68.41;101819.59;3081822;46;20463;-67
2023/12/07 05:51:52;;;;;;;17.60;15.07;;;5.20;95.30;;;6.82;68.46;101821.47;3081714;46;20438;-67
2023/12/07 05:54:22;;;;;;;20.07;15.57;;;5.20;95.30;;;6.82;68.58;101818.88;3081296;46;20483;-67
2023/12/07 05:56:50;;;;;;;18.80;14.60;;;5.10;95.20;;;6.83;68.72;101825.78;3081732;46;20427;-66
2023/12/07 05:59:18;;;;;;;19.87;15.20;;;5.10;95.30;;;6.85;68.62;101827.44;3081675;46;21080;-66
2023/12/07 06:01:47;;;;;;;18.80;14.43;;;5.10;95.30;;;6.85;68.63;101830.06;3081800;46;20513;-67
2023/12/07 06:04:16;;;;;;;20.37;15.47;;;5.10;95.40;;;6.87;68.78;101828.16;3081085;46;20530;-66
2023/12/07 06:06:45;;;;;;;20.07;15.73;;;5.10;95.40;;;6.85;68.55;101824.81;3081362;46;20914;-65
2023/12/07 06:09:13;;;;;;;21.73;15.27;;;5.10;95.30;;;6.85;68.59;101835.28;3081010;46;20431;-66
2023/12/07 06:11:42;;;;;;;20.27;14.87;;;5.10;95.30;;;6.82;68.44;101837.19;3081188;46;20509;-66
2023/12/07 06:14:11;;;;;;;19.77;15.07;;;5.10;95.30;;;6.82;68.56;101837.19;3080991;46;20466;-68
2023/12/07 06:16:39;;;;;;;19.60;15.40;;;5.10;95.20;;;6.81;68.56;101839.94;3081652;46;20458;-66
2023/12/07 06:19:08;;;;;;;19.53;15.03;;;5.10;95.20;;;6.80;68.49;101838.25;3081876;46;20438;-65
2023/12/07 06:21:36;;;;;;;20.23;14.90;;;5.10;95.20;;;6.79;68.51;101834.84;3081229;46;21014;-66
2023/12/07 06:24:05;;;;;;;19.43;14.50;;;5.10;95.20;;;6.78;68.49;101851.47;3080228;46;20435;-66
2023/12/07 06:26:33;;;;;;;20.60;15.97;;;5.00;95.20;;;6.77;68.42;101857.63;3081090;46;21004;-66
2023/12/07 06:29:02;;;;;;;19.60;15.30;;;5.10;95.20;;;6.77;68.44;101849.78;3081632;46;21093;-66
2023/12/07 06:31:30;;;;;;;21.63;15.60;;;5.00;95.30;;;6.77;68.50;101852.41;3081383;46;20439;-68
2023/12/07 06:34:00;;;;;;;17.60;15.07;;;5.10;95.40;;;6.76;68.44;101856.00;3080393;46;20441;-67
2023/12/07 06:36:28;;;;;;;21.40;15.47;;;5.00;95.40;;;6.77;68.54;101855.03;3081237;46;21149;-66
2023/12/07 06:38:57;;;;;;;18.90;15.70;;;5.00;95.40;;;6.78;68.62;101855.84;3081278;46;20470;-66
2023/12/07 06:41:26;;;;;;;20.13;15.00;;;5.00;95.50;;;6.78;68.47;101855.84;3081477;46;20444;-66
2023/12/07 06:43:54;;;;;;;23.07;16.13;;;5.00;95.30;;;6.78;68.36;101858.47;3080682;46;20439;-66
2023/12/07 06:46:24;;;;;;;17.50;13.63;;;5.00;95.30;;;6.76;68.32;101857.78;3081201;46;20596;-66
2023/12/07 06:48:52;;;;;;;26.27;15.60;;;5.00;95.30;;;6.78;68.90;101859.31;3080980;46;20495;-66
2023/12/07 06:51:21;;;;;;;21.50;15.83;;;5.10;95.50;;;6.82;68.82;101845.03;3081326;46;20611;-67
2023/12/07 06:53:49;;;;;;;19.90;15.30;;;5.10;95.60;;;6.88;68.87;101855.97;3080513;46;21117;-66
2023/12/07 06:56:18;;;;;;;21.50;15.30;;;5.10;95.60;;;6.91;68.75;101850.47;3081573;46;20434;-67
2023/12/07 06:58:46;;;;;;;19.53;16.07;;;5.10;95.60;;;6.95;68.76;101857.13;3081091;46;20428;-67
2023/12/07 07:01:14;;;;;;;19.67;14.93;;;5.10;95.50;;;6.96;68.70;101854.41;3081163;46;20438;-66
2023/12/07 07:03:43;;;;;;;19.77;14.90;;;5.20;95.50;;;6.95;68.34;101852.72;3080470;46;21109;-66
2023/12/07 07:06:11;;;;;;;19.97;15.30;;;5.20;95.50;;;6.95;68.57;101847.50;3081024;46;20506;-65
2023/12/07 07:08:40;;;;;;;21.97;15.07;;;5.20;95.50;;;6.98;68.48;101856.88;3081082;46;20431;-67
2023/12/07 07:11:14;;;;;;;23.83;17.23;;;5.20;95.40;;;6.99;68.38;101858.56;3080991;46;20450;-67
2023/12/07 07:13:43;;;;;;;19.83;15.20;;;5.20;95.40;;;6.99;68.10;101858.56;3080165;46;20446;-66
2023/12/07 07:16:11;;;;;;;32.63;22.37;;;5.30;95.40;;;6.99;68.61;101863.78;3080890;46;21128;-66
2023/12/07 07:18:40;;;;;;;55.27;34.87;;;5.20;95.40;;;7.02;68.56;101860.91;3080847;46;20512;-66
2023/12/07 07:21:08;;;;;;;21.93;16.07;;;5.30;95.50;;;7.05;68.32;101863.28;3080786;46;20434;-65
2023/12/07 07:23:37;;;;;;;20.40;14.83;;;5.30;95.80;;;7.00;67.92;101860.22;3080125;46;20463;-66
2023/12/07 07:26:06;;;;;;;23.33;15.07;;;5.30;95.30;;;6.96;67.90;101858.81;3080415;46;20458;-64
2023/12/07 07:28:34;;;;;;;21.07;15.37;;;5.30;95.20;;;6.92;67.66;101862.63;3080485;46;20429;-68
2023/12/07 07:31:03;;;;;;;18.87;15.03;;;5.30;95.10;;;6.83;67.59;101865.00;3080357;46;20446;-66
2023/12/07 07:33:32;;;;;;;21.13;15.23;;;5.20;94.90;;;6.75;67.73;101864.78;3080179;46;21058;-66
2023/12/07 07:36:00;;;;;;;18.20;14.40;;;5.20;94.80;;;6.68;67.83;101873.25;3082869;46;21012;-66
2023/12/07 07:38:28;;;;;;;21.83;15.63;;;5.20;94.80;;;6.59;67.79;101877.41;3083287;46;20974;-65
2023/12/07 07:40:57;;;;;;;20.77;15.90;;;5.10;94.70;;;6.57;68.13;101876.72;3083389;46;20570;-66
2023/12/07 07:43:25;;;;;;;19.87;14.43;;;5.10;94.90;;;6.53;68.42;101880.53;3081609;43;20487;-66
2023/12/07 07:45:54;;;;;;;22.47;15.10;;;5.00;94.90;;;6.52;68.51;101884.09;3081635;46;20424;-66
2023/12/07 07:48:22;;;;;;;18.27;14.03;;;5.00;95.00;;;6.51;68.64;101879.78;3084265;46;20428;-66
2023/12/07 07:50:51;;;;;;;18.40;14.50;;;5.00;95.10;;;6.49;68.54;101880.88;3083251;46;20975;-65
2023/12/07 07:53:19;;;;;;;21.10;15.83;;;5.00;95.10;;;6.48;68.69;101887.91;3082528;46;20466;-66
2023/12/07 07:55:48;;;;;;;19.20;14.33;;;4.90;95.20;;;6.50;68.84;101883.38;3082454;46;20455;-67
2023/12/07 07:58:16;;;;;;;17.30;14.23;;;4.90;95.20;;;6.46;68.52;101876.72;3081380;46;20551;-67
2023/12/07 08:00:46;;;;;;;19.43;14.40;;;4.90;95.10;;;6.42;68.62;101875.28;3082614;46;21031;-66
2023/12/07 08:03:14;;;;;;;21.60;16.03;;;4.90;95.20;;;6.41;68.83;101880.66;3081827;46;20456;-65
2023/12/07 08:05:43;;;;;;;19.63;15.10;;;4.90;95.20;;;6.41;68.81;101873.63;3082041;46;20454;-66
2023/12/07 08:08:11;;;;;;;21.93;15.17;;;4.90;95.30;;;6.47;69.00;101878.38;3082194;46;20438;-68
2023/12/07 08:10:40;;;;;;;20.53;14.93;;;4.80;95.30;;;6.44;68.59;101889.06;3082864;46;21099;-66
2023/12/07 08:13:23;;;;;;;19.53;15.07;;;4.80;95.30;;;6.38;68.70;101893.94;3082697;46;20594;-68
2023/12/07 08:15:52;;;;;;;18.30;14.50;;;4.80;95.20;;;6.32;68.83;101890.03;3081910;46;20435;-66
2023/12/07 08:18:25;;;;;;;20.57;15.20;;;4.80;95.10;;;6.32;69.05;101891.81;3082659;46;20560;-67
2023/12/07 08:20:54;;;;;;;18.23;14.43;;;4.80;95.20;;;6.32;69.05;101891.81;3082590;46;20462;-67
2023/12/07 08:23:22;;;;;;;18.90;14.30;;;4.80;95.20;;;6.31;69.07;101896.22;3082703;46;20446;-68
2023/12/07 08:25:51;;;;;;;20.10;15.30;;;4.80;95.20;;;6.36;69.10;101901.09;3082499;46;20427;-64
2023/12/07 08:28:19;;;;;;;21.20;15.43;;;4.80;95.30;;;6.43;69.38;101899.66;3082257;46;20529;-66
2023/12/07 08:30:48;;;;;;;22.30;16.67;;;4.80;95.50;;;6.50;69.29;101888.59;3082765;46;20565;-65
2023/12/07 08:33:16;;;;;;;20.13;15.23;;;4.80;95.70;;;6.56;68.80;101890.72;3081690;46;20457;-67
2023/12/07 08:35:46;;;;;;;19.17;14.60;;;4.80;95.70;;;6.54;68.61;101887.41;3080226;46;20432;-65
2023/12/07 08:38:14;;;;;;;20.73;15.90;;;4.90;95.40;;;6.49;68.55;101894.78;3082282;46;20423;-67
2023/12/07 08:40:42;;;;;;;20.50;15.47;;;4.90;95.30;;;6.39;68.62;101895.63;3081890;46;21109;-65
2023/12/07 08:43:11;;;;;;;20.17;15.93;;;4.90;95.20;;;6.37;68.84;101892.31;3081894;46;20492;-68
2023/12/07 08:45:39;;;;;;;17.27;13.93;;;4.90;95.20;;;6.33;68.93;101896.09;3081977;46;20438;-66
2023/12/07 08:48:08;;;;;;;18.97;14.30;;;4.90;95.20;;;6.30;69.09;101891.91;3081777;46;20437;-66
2023/12/07 08:50:37;;;;;;;21.03;15.23;;;4.80;95.20;;;6.30;69.21;101897.16;3080955;46;20542;-66
2023/12/07 08:53:05;;;;;;;21.03;15.20;;;4.80;95.20;;;6.34;69.31;101906.44;3080710;46;20446;-69
2023/12/07 08:55:34;;;;;;;19.93;15.63;;;4.80;95.40;;;6.38;69.25;101907.84;3081349;46;21023;-68
2023/12/07 08:58:04;;;;;;;20.83;14.90;;;4.80;95.50;;;6.43;69.17;101912.72;3081727;46;20440;-66
2023/12/07 09:00:33;;;;;;;17.83;14.30;;;4.80;95.50;;;6.45;69.18;101918.66;3082296;46;20634;-66
2023/12/07 09:03:02;;;;;;;19.73;14.57;;;4.80;95.50;;;6.47;69.13;101920.22;3079590;46;21118;-65
2023/12/07 09:05:30;;;;;;;19.80;14.30;;;4.90;95.50;;;6.54;69.26;101921.41;3081612;43;20461;-67
2023/12/07 09:07:59;;;;;;;19.67;14.50;;;4.90;95.70;;;6.61;69.27;101912.13;3080892;46;21023;-63
2023/12/07 09:10:28;;;;;;;20.50;15.33;;;4.90;95.80;;;6.64;68.68;101916.28;3081699;46;20503;-66
2023/12/07 09:12:56;;;;;;;21.57;15.67;;;4.90;95.60;;;6.69;69.19;101914.16;3081382;46;20462;-66
2023/12/07 09:15:24;;;;;;;21.63;16.60;;;5.00;95.80;;;6.71;68.51;101918.31;3080476;46;20465;-67
2023/12/07 09:17:54;;;;;;;19.23;14.83;;;5.00;95.70;;;6.70;68.83;101916.63;3079215;46;20478;-67
2023/12/07 09:20:23;;;;;;;29.23;18.70;;;5.00;95.60;;;6.72;68.69;101927.81;3080767;46;20442;-66
2023/12/07 09:22:51;;;;;;;21.77;16.40;;;5.10;95.70;;;6.73;68.54;101926.88;3078703;46;20556;-66
2023/12/07 09:25:21;;;;;;;22.50;16.43;;;5.10;95.60;;;6.76;68.58;101925.78;3078489;43;20466;-66
2023/12/07 09:27:51;;;;;;;25.67;17.00;;;5.00;95.50;;;6.81;68.85;101928.88;3080666;46;20428;-66
2023/12/07 09:30:20;;;;;;;19.43;15.57;;;5.10;95.60;;;6.87;68.81;101924.97;3082073;46;20439;-64
2023/12/07 09:32:48;;;;;;;18.70;14.57;;;5.10;95.60;;;6.91;68.28;101928.97;3081187;46;20463;-65
2023/12/07 09:35:19;;;;;;;22.23;17.37;;;5.10;95.50;;;6.87;67.98;101922.34;3081643;46;20439;-68
2023/12/07 09:37:51;;;;;;;26.10;17.60;;;5.10;95.30;;;6.81;67.97;101918.41;3081135;46;20438;-65
2023/12/07 09:40:22;;;;;;;24.90;17.07;;;5.20;95.10;;;6.80;68.26;101922.81;3080979;46;20435;-62
2023/12/07 09:42:57;;;;;;;22.63;16.23;;;5.10;95.20;;;6.82;68.26;101917.47;3079966;46;20442;-61
2023/12/07 09:45:26;;;;;;;26.90;18.53;;;5.10;95.30;;;6.82;67.96;101918.28;3081730;46;20463;-67
2023/12/07 09:47:55;;;;;;;26.60;18.43;;;5.20;95.20;;;6.83;68.15;101912.09;3080830;46;20462;-65
2023/12/07 09:50:27;;;;;;;29.33;21.47;;;5.20;95.30;;;6.90;68.68;101914.22;3079582;46;20499;-64
2023/12/07 09:52:58;;;;;;;24.83;19.03;;;5.20;95.50;;;6.98;68.53;101925.75;3081169;46;21452;-67
2023/12/07 09:55:35;;;;;;;22.23;16.57;;;5.20;95.50;;;7.04;68.47;101924.44;3082486;43;20442;-65
2023/12/07 09:58:06;;;;;;;21.43;17.17;;;5.20;95.50;;;7.11;68.26;101925.59;3080734;46;20447;-67
2023/12/07 10:00:37;;;;;;;25.00;17.77;;;5.30;95.40;;;7.16;68.17;101920.84;3081053;46;20511;-68
2023/12/07 10:03:09;;;;;;;20.17;14.93;;;5.30;95.50;;;7.21;67.86;101926.53;3080961;46;20504;-66
2023/12/07 10:06:02;;;;;;;18.67;14.00;;;5.30;95.40;;;7.17;67.54;101925.13;3081546;46;20427;-67
2023/12/07 10:08:35;;;;;;;17.10;13.83;;;5.40;95.30;;;7.15;67.03;101921.81;3080632;46;20432;-65
2023/12/07 10:11:11;;;;;;;18.30;13.43;;;5.40;94.90;;;7.11;67.36;101931.66;3080949;46;21067;-66
2023/12/07 10:13:40;;;;;;;18.17;14.30;;;5.40;94.90;;;7.19;68.02;101923.22;3080969;46;20447;-66
2023/12/07 10:16:16;;;;;;;18.33;13.60;;;5.40;95.10;;;7.22;67.56;101930.81;3081073;46;21027;-66
2023/12/07 10:18:44;;;;;;;16.33;13.53;;;5.50;95.20;;;7.21;66.86;101929.16;3081121;46;20434;-66
2023/12/07 10:21:13;;;;;;;15.67;12.87;;;5.50;94.80;;;7.22;67.33;101928.22;3081228;46;20438;-65